Latest Weather Observations for Albury

IDV60801

Issued at 10:35 pm EST Thursday 24 April 2014 (issued every 30 minutes, with the page automatically refreshed every 10 minutes)

About weather observations | Map of weather stations | Latest weather observations for VIC | Other Formats
Station Details ID: 072160 Name: ALBURY AIRPORT AWS Lat: -36.07 Lon: 146.95 Height: 163.5 m
Data from the previous 72 hours. | See also: Recent months at Albury
Date/Time
EST
Temp
°C
App
Temp
°C
Dew
Point
Rel
Hum
%
Delta-T
°C
Wind Press
QNH
hPa
Press
MSL
hPa
Rain
since 9 am
mm
Dir
 
Spd
km/h
Gust
km/h
Spd
kts
Gust
kts
24/10:30pm 9.3 7.5 7.9 91 0.7 WSW 7 9 4 5 1019.5 - 0.0
24/10:00pm 10.1 9.8 8.5 90 0.8 E 0 0 0 0 1019.5 - 0.0
24/09:30pm 9.7 9.1 7.3 85 1.1 CALM 0 2 0 1 1019.2 - 0.0
24/09:00pm 11.0 10.7 8.6 85 1.2 CALM 0 0 0 0 1018.9 1018.8 0.0
24/08:30pm 11.6 9.8 9.3 86 1.2 SSW 9 11 5 6 1018.5 - 0.0
24/08:00pm 12.0 10.5 8.5 79 1.7 NE 6 9 3 5 1018.4 - 0.0
24/07:30pm 13.2 11.8 9.5 78 1.9 NNW 7 9 4 5 1018.0 - 0.0
24/07:00pm 13.1 11.8 9.2 77 2.0 N 6 7 3 4 1017.8 - 0.0
24/06:30pm 13.6 11.4 9.5 76 2.1 W 11 13 6 7 1017.3 - 0.0
24/06:00pm 15.5 13.0 9.6 68 3.1 W 13 17 7 9 1017.1 1016.9 0.0
24/05:30pm 16.3 13.9 9.9 66 3.4 W 13 17 7 9 1016.6 - 0.0
24/05:00pm 18.2 15.9 10.3 60 4.3 W 13 19 7 10 1016.3 - 0.0
24/04:30pm 19.0 17.1 10.6 58 4.6 W 11 17 6 9 1015.9 - 0.0
24/04:00pm 20.0 17.7 10.4 54 5.2 NW 13 20 7 11 1015.8 - 0.0
24/03:30pm 19.6 17.2 10.0 54 5.2 WNW 13 19 7 10 1015.7 - 0.0
24/03:00pm 18.6 15.3 9.7 56 4.7 WNW 17 20 9 11 1015.5 1015.4 0.0
24/02:30pm 20.1 16.8 9.7 51 5.6 WNW 17 24 9 13 1015.2 - 0.0
24/02:00pm 20.1 16.9 9.9 52 5.5 WSW 17 24 9 13 1015.2 - 0.0
24/01:30pm 19.6 15.6 8.9 50 5.7 WNW 20 32 11 17 1015.3 - 0.0
24/01:00pm 19.6 15.5 8.6 49 5.8 WNW 20 30 11 16 1015.6 - 0.0
24/12:30pm 19.7 15.5 8.4 48 5.9 WNW 20 28 11 15 1015.7 - 0.0
24/12:00pm 19.2 15.1 7.9 48 5.8 W 19 28 10 15 1016.1 1015.9 0.0
24/11:30am 18.7 14.4 7.2 47 5.9 WNW 19 28 10 15 1016.3 - 0.0
24/11:00am 18.8 14.6 7.3 47 5.9 W 19 24 10 13 1016.4 - 0.0
24/10:30am 17.8 13.9 8.6 55 4.8 WNW 19 22 10 12 1016.4 - 0.0
24/10:00am 16.2 15.9 11.4 73 2.6 SSE 4 7 2 4 1016.5 - 0.0
24/09:30am 15.6 15.7 11.4 76 2.3 ENE 2 6 1 3 1016.4 - 0.0
24/09:00am 14.2 14.4 10.4 78 2.0 CALM 0 6 0 3 1016.3 1016.1 0.0
24/08:30am 13.0 11.9 10.0 82 1.6 ESE 6 7 3 4 1016.1 - 0.0
24/08:00am 10.9 10.8 9.5 91 0.7 CALM 0 0 0 0 1015.7 - 0.0
24/07:30am 9.9 9.7 9.0 94 0.4 CALM 0 0 0 0 1015.2 - 0.0
24/07:00am 9.6 9.2 8.4 92 0.6 CALM 0 6 0 3 1015.0 - 0.0
24/06:30am 10.0 9.0 8.8 92 0.6 S 4 7 2 4 1014.7 - 0.0
24/06:00am 10.0 9.8 9.1 94 0.4 CALM 0 0 0 0 1014.2 1014.1 0.0
24/05:30am 10.4 10.0 9.6 95 0.4 SE 2 6 1 3 1014.0 - 0.0
24/05:00am 10.5 10.1 9.9 96 0.3 SSE 2 6 1 3 1013.8 - 0.0
24/04:30am 10.1 10.0 9.5 96 0.3 CALM 0 0 0 0 1013.6 - 0.0
24/04:00am 10.3 9.5 9.8 97 0.3 E 4 7 2 4 1013.4 - 0.0
24/03:30am 10.2 10.2 9.7 97 0.3 CALM 0 0 0 0 1013.4 - 0.0
24/03:00am 10.3 10.3 9.8 97 0.3 CALM 0 0 0 0 1013.4 1013.3 0.0
24/02:30am 10.0 9.8 9.1 94 0.4 CALM 0 0 0 0 1013.7 - 0.0
24/02:00am 10.7 10.0 9.9 95 0.4 SSW 4 6 2 3 1013.9 - 0.0
24/01:30am 11.0 10.3 9.9 93 0.6 N 4 7 2 4 1014.2 - 0.0
24/01:00am 10.8 10.8 9.9 94 0.5 CALM 0 0 0 0 1014.2 - 0.0
24/12:30am 11.5 11.0 10.9 96 0.3 E 4 6 2 3 1014.4 - 0.0
24/12:00am 10.8 10.9 10.0 95 0.4 NE 0 0 0 0 1014.5 1014.4 0.0
 
Date/Time
EST
Temp
°C
App
Temp
°C
Dew
Point
Rel
Hum
%
Delta-T
°C
Wind Press
QNH
hPa
Press
MSL
hPa
Rain
since 9 am
mm
Dir
 
Spd
km/h
Gust
km/h
Spd
kts
Gust
kts
23/11:47pm 11.3 11.5 10.7 96 0.3 CALM 0 0 0 0 1014.5 - 0.0
23/11:30pm 11.2 11.3 10.3 94 0.5 CALM 0 0 0 0 1014.6 - 0.0
23/11:25pm 11.4 11.5 10.3 93 0.6 CALM 0 0 0 0 1014.5 - 0.0
23/11:00pm 12.1 12.5 11.2 94 0.5 CALM 0 0 0 0 1014.7 - 0.0
23/10:30pm 12.2 12.5 10.8 91 0.7 CALM 0 0 0 0 1014.8 - 0.0
23/10:00pm 12.2 12.4 10.4 89 0.9 CALM 0 0 0 0 1014.8 - 0.0
23/09:30pm 12.9 13.2 11.0 88 1.0 CALM 0 0 0 0 1014.9 - 0.0
23/09:00pm 13.9 13.7 11.8 87 1.1 E 4 6 2 3 1014.9 1014.8 0.0
23/08:30pm 15.3 15.7 12.4 83 1.6 SE 2 6 1 3 1014.8 - 0.0
23/08:00pm 16.1 15.4 12.1 77 2.2 NW 7 9 4 5 1014.8 - 0.0
23/07:30pm 16.5 16.5 12.3 76 2.3 NNW 4 7 2 4 1014.5 - 0.0
23/07:00pm 17.1 16.5 12.4 74 2.6 W 7 9 4 5 1014.5 - 0.0
23/06:30pm 17.5 16.5 12.2 71 2.9 W 9 11 5 6 1014.3 - 0.0
23/06:00pm 18.5 17.4 11.8 65 3.7 NW 9 15 5 8 1014.1 1014.0 0.0
23/05:30pm 19.1 18.4 11.9 63 4.0 NE 7 9 4 5 1013.9 - 0.0
23/05:00pm 20.2 19.0 11.7 58 4.7 NNE 9 11 5 6 1013.9 - 0.0
23/04:30pm 20.5 18.8 11.2 55 5.2 N 11 15 6 8 1013.9 - 0.0
23/04:00pm 21.1 18.6 10.9 52 5.6 NE 15 20 8 11 1013.9 - 0.0
23/03:30pm 21.3 18.1 11.3 53 5.6 N 19 24 10 13 1013.9 - 0.0
23/03:00pm 21.8 19.8 11.5 52 5.8 N 13 22 7 12 1014.0 1013.9 0.0
23/02:30pm 22.2 20.1 11.3 50 6.1 N 13 19 7 10 1014.2 - 0.0
23/02:00pm 21.9 18.9 10.7 49 6.2 NNW 17 24 9 13 1014.4 - 0.0
23/01:30pm 20.9 18.1 10.1 50 5.9 NNW 15 24 8 13 1014.6 - 0.0
23/01:00pm 21.3 18.7 10.8 51 5.8 N 15 24 8 13 1015.0 - 0.0
23/12:30pm 21.1 18.9 12.0 56 5.1 NNE 15 24 8 13 1015.4 - 0.0
23/12:00pm 20.8 17.7 11.7 56 5.1 N 19 24 10 13 1016.1 1015.9 0.0
23/11:30am 20.0 17.5 11.2 57 4.9 N 15 20 8 11 1016.6 - 0.0
23/11:00am 20.2 17.5 10.3 53 5.4 N 15 19 8 10 1016.6 - 0.0
23/10:30am 20.1 17.9 10.8 55 5.1 ENE 13 19 7 10 1016.8 - 0.0
23/10:00am 19.2 17.4 11.0 59 4.5 ENE 11 15 6 8 1017.0 - 0.0
23/09:30am 18.6 17.5 11.9 65 3.7 E 9 11 5 6 1017.2 - 0.0
23/09:00am 16.6 16.6 13.5 82 1.8 ESE 6 7 3 4 1017.4 1017.3 1.6
23/08:30am 15.2 14.9 13.4 89 1.0 E 7 9 4 5 1017.3 - 1.6
23/08:00am 13.4 12.7 13.1 98 0.2 S 9 13 5 7 1017.1 - 1.6
23/07:30am 12.8 12.7 12.2 96 0.3 ESE 4 7 2 4 1016.7 - 1.6
23/07:00am 12.8 12.1 12.0 95 0.4 S 7 11 4 6 1016.5 - 1.6
23/06:30am 13.1 13.0 12.2 94 0.5 NE 4 7 2 4 1016.1 - 1.6
23/06:00am 13.3 12.0 12.5 95 0.4 NE 11 20 6 11 1015.8 1015.7 1.6
23/05:30am 13.8 12.7 13.2 96 0.3 SSE 11 17 6 9 1015.8 - 1.4
23/05:00am 13.5 13.7 12.9 96 0.3 W 4 11 2 6 1016.2 - 0.8
23/04:30am 13.7 13.8 12.6 93 0.6 S 4 11 2 6 1015.5 - 0.8
23/04:26am 13.6 13.1 12.5 93 0.6 S 7 11 4 6 1015.6 - 0.8
23/04:12am 13.6 10.6 12.7 94 0.5 ENE 20 24 11 13 1015.1 - 0.6
23/04:00am 13.8 13.8 12.5 92 0.7 SE 4 9 2 5 1016.2 - 0.0
23/03:30am 13.6 13.3 12.7 94 0.5 SSE 6 11 3 6 1015.7 - 0.0
23/03:00am 13.2 13.8 11.9 92 0.7 CALM 0 6 0 3 1015.7 1015.6 0.0
23/02:30am 13.8 14.5 12.2 90 0.9 CALM 0 6 0 3 1015.6 - 0.0
23/02:00am 14.1 13.3 11.8 86 1.2 SE 7 9 4 5 1015.8 - 0.0
23/01:30am 14.6 13.8 11.6 82 1.6 SE 7 13 4 7 1016.6 - 0.0
23/01:00am 14.5 13.0 12.0 85 1.4 S 11 15 6 8 1016.4 - 0.0
23/12:30am 14.3 12.7 11.6 84 1.5 SSE 11 13 6 7 1016.2 - 0.0
23/12:00am 14.4 12.9 10.6 78 2.0 ESE 9 13 5 7 1016.2 1016.0 0.0
 
Date/Time
EST
Temp
°C
App
Temp
°C
Dew
Point
Rel
Hum
%
Delta-T
°C
Wind Press
QNH
hPa
Press
MSL
hPa
Rain
since 9 am
mm
Dir
 
Spd
km/h
Gust
km/h
Spd
kts
Gust
kts
22/11:30pm 14.6 13.0 10.2 75 2.3 SSE 9 11 5 6 1016.4 - 0.0
22/11:00pm 15.4 13.1 10.6 73 2.6 SSE 13 15 7 8 1016.8 - 0.0
22/10:30pm 16.5 14.9 10.1 66 3.4 ESE 9 11 5 6 1017.2 - 0.0
22/10:00pm 16.8 15.2 10.2 65 3.5 ESE 9 13 5 7 1016.9 - 0.0
22/09:30pm 16.1 15.2 10.8 71 2.8 ESE 6 9 3 5 1016.9 - 0.0
22/09:00pm 16.7 15.7 10.3 66 3.4 ENE 6 7 3 4 1016.8 1016.6 0.0
22/08:30pm 16.7 15.8 10.8 68 3.2 ESE 6 7 3 4 1016.6 - 0.0
22/08:00pm 17.5 16.5 10.9 65 3.6 E 7 9 4 5 1016.4 - 0.0
22/07:30pm 17.6 16.4 10.2 62 4.0 ENE 7 9 4 5 1016.5 - 0.0
22/07:00pm 17.4 16.2 10.3 63 3.8 NE 7 9 4 5 1016.2 - 0.0
22/06:30pm 18.0 16.8 10.4 61 4.1 E 7 9 4 5 1015.9 - 0.0
22/06:00pm 18.8 17.7 10.6 59 4.5 ENE 7 9 4 5 1015.7 1015.6 0.0
22/05:30pm 19.2 17.3 10.5 57 4.7 ENE 11 15 6 8 1015.4 - 0.0
22/05:00pm 19.7 17.4 10.4 55 5.1 NE 13 17 7 9 1015.5 - 0.0
22/04:30pm 20.5 17.8 10.3 52 5.6 NNE 15 20 8 11 1015.5 - 0.0
22/04:00pm 21.2 17.7 10.1 49 6.1 NNE 19 28 10 15 1015.1 - 0.0
22/03:30pm 21.6 18.4 10.1 48 6.3 NE 17 22 9 12 1014.9 - 0.0
22/03:00pm 21.7 18.2 10.2 48 6.3 NE 19 26 10 14 1015.1 1015.0 0.0
22/02:30pm 22.0 19.8 10.8 49 6.2 NE 13 20 7 11 1016.2 - 0.0
22/02:00pm 20.4 18.7 11.1 55 5.1 SE 11 15 6 8 1016.6 - 0.0
22/01:30pm 19.9 17.8 11.1 57 4.9 SE 13 19 7 10 1017.0 - 0.0
22/01:00pm 18.9 17.1 10.7 59 4.5 S 11 15 6 8 1017.6 - 0.0
22/12:30pm 18.3 16.9 10.9 62 4.0 SSE 9 13 5 7 1018.0 - 0.0
22/12:00pm 18.2 16.3 10.6 61 4.1 SSE 11 13 6 7 1018.3 1018.2 0.0
22/11:30am 18.0 16.6 10.9 63 3.9 ESE 9 15 5 8 1018.6 - 0.0
22/11:00am 17.4 15.9 10.5 64 3.7 ESE 9 13 5 7 1018.9 - 0.0
22/10:30am 15.6 14.0 10.2 70 2.9 S 9 15 5 8 1019.2 - 0.0
22/10:00am 14.8 12.9 10.6 76 2.2 S 11 15 6 8 1019.4 - 0.0
22/09:30am 14.4 12.8 10.2 76 2.2 SE 9 13 5 7 1019.2 - 0.0
22/09:00am 13.3 12.8 9.5 78 1.9 E 2 6 1 3 1019.4 1019.3 0.0
22/08:30am 12.5 12.3 9.0 79 1.8 CALM 0 0 0 0 1019.6 - 0.0
22/08:00am 10.7 10.5 9.0 89 0.9 CALM 0 0 0 0 1019.6 - 0.0
22/07:30am 9.7 9.4 8.5 92 0.6 CALM 0 0 0 0 1019.7 - 0.0
22/07:00am 9.5 9.0 7.8 89 0.8 CALM 0 0 0 0 1019.5 - 0.0
22/06:30am 9.5 9.0 7.9 90 0.8 CALM 0 0 0 0 1019.3 - 0.0
22/06:00am 9.5 8.0 8.4 93 0.5 ENE 6 7 3 4 1019.3 1019.2 0.0
22/05:30am 9.0 8.6 8.1 94 0.4 CALM 0 0 0 0 1019.3 - 0.0
22/05:00am 8.6 8.1 7.7 94 0.4 CALM 0 0 0 0 1019.1 - 0.0
22/04:30am 8.6 7.7 7.8 95 0.4 NNE 2 6 1 3 1018.9 - 0.0
22/04:00am 8.4 6.5 7.5 94 0.4 NNE 7 7 4 4 1018.8 - 0.0
22/03:30am 8.3 7.7 7.2 93 0.5 CALM 0 0 0 0 1018.8 - 0.0
22/03:00am 8.3 7.6 7.1 92 0.6 CALM 0 0 0 0 1018.7 1018.6 0.0
22/02:30am 8.4 7.7 6.9 90 0.7 CALM 0 0 0 0 1019.1 - 0.0
22/02:00am 9.0 8.4 7.6 91 0.7 CALM 0 0 0 0 1019.3 - 0.0
22/01:30am 8.9 7.2 7.5 91 0.7 ENE 6 9 3 5 1019.3 - 0.0
22/01:00am 8.6 7.6 7.2 91 0.7 NE 2 6 1 3 1019.6 - 0.0
22/12:30am 9.0 8.4 7.5 90 0.7 CALM 0 4 0 2 1019.7 - 0.0
22/12:00am 9.0 8.4 7.5 90 0.7 CALM 0 0 0 0 1019.6 1019.5 0.0
 
Date/Time
EST
Temp
°C
App
Temp
°C
Dew
Point
Rel
Hum
%
Delta-T
°C
Wind Press
QNH
hPa
Press
MSL
hPa
Rain
since 9 am
mm
Dir
 
Spd
km/h
Gust
km/h
Spd
kts
Gust
kts
21/11:30pm 9.3 8.0 7.7 90 0.8 N 4 6 2 3 1019.8 - 0.0
21/11:00pm 8.7 8.1 7.3 91 0.7 CALM 0 0 0 0 1020.0 - 0.0

Other Formats:

Comma delimited format used in spreadsheet applications
http://www.bom.gov.au/fwo/IDV60801/IDV60801.95896.axf

JavaScript Object Notation format (JSON) in row-major order
http://www.bom.gov.au/fwo/IDV60801/IDV60801.95896.json